This is the latest recevied weather packets stored in our database for station/object KI5RAB. If no packets are shown the sender has not sent any weather packets the latest 10 day(s).
| Time | Temp. | Humidity | Pressure | Rain* | Wind** | Luminosity | Snow |
|---|---|---|---|---|---|---|---|
| 1778094838 | 30° C | 69% | 1013 hPa | 0 mm | - | 775 W/m² | - |
| 1778094536 | 29.44° C | 70% | 1013.2 hPa | 0 mm | - | 563 W/m² | - |
| 1778094232 | 28.33° C | 73% | 1013.1 hPa | 0 mm | - | 622 W/m² | - |
| 1778093929 | 28.89° C | 71% | 1013.1 hPa | 0 mm | - | 416 W/m² | - |
| 1778093626 | 29.44° C | 69% | 1013.3 hPa | 0 mm | - | 332 W/m² | - |
| 1778093323 | 28.89° C | 70% | 1013.2 hPa | 0 mm | - | 719 W/m² | - |
| 1778093020 | 28.89° C | 74% | 1013.3 hPa | 0 mm | - | 893 W/m² | - |
| 1778092717 | 28.89° C | 75% | 1013.4 hPa | 0 mm | - | 470 W/m² | - |
| 1778092412 | 28.89° C | 74% | 1013.6 hPa | 0 mm | - | 427 W/m² | - |
| 1778092110 | 27.78° C | 76% | 1013.5 hPa | 0 mm | - | 465 W/m² | - |
| 1778091807 | 27.78° C | 77% | 1013.6 hPa | 0 mm | - | 631 W/m² | - |
| 1778091505 | 27.78° C | 78% | 1013.6 hPa | 0 mm | - | 683 W/m² | - |
| 1778091202 | 26.67° C | 81% | 1013.7 hPa | 0 mm | - | 358 W/m² | - |
| 1778090899 | 26.67° C | 81% | 1013.8 hPa | 0 mm | - | 268 W/m² | - |
| 1778090595 | 26.67° C | 81% | 1013.9 hPa | 0 mm | - | 190 W/m² | - |
| 1778090292 | 26.67° C | 82% | 1014 hPa | 0 mm | - | 168 W/m² | - |
| 1778089989 | 26.67° C | 82% | 1013.9 hPa | 0 mm | - | 181 W/m² | - |
| 1778089686 | 26.67° C | 81% | 1014.1 hPa | 0 mm | - | 183 W/m² | - |
| 1778089383 | 26.11° C | 82% | 1014.2 hPa | 0 mm | - | 204 W/m² | - |
| 1778089081 | 26.11° C | 81% | 1014.1 hPa | 0 mm | - | 191 W/m² | - |
| 1778088777 | 26.11° C | 82% | 1013.9 hPa | 0 mm | - | 150 W/m² | - |
| 1778088474 | 26.11° C | 82% | 1014 hPa | 0 mm | - | 120 W/m² | - |
| 1778088171 | 26.11° C | 82% | 1014 hPa | 0 mm | - | 118 W/m² | - |
| 1778087868 | 26.11° C | 82% | 1014.2 hPa | 0 mm | - | 114 W/m² | - |
| 1778087565 | 26.11° C | 83% | 1014.3 hPa | 0 mm | - | 106 W/m² | - |
* Rain latest hour (hover to see other rain measurements)
** Current wind speed in m/s (hover to see current wind gust speed)